sensor_id;sensor_type;location;lat;lon;timestamp;P1;durP1;ratioP1;P2;durP2;ratioP2
71176;SDS011;58877;51.992;4.504;2023-05-31T00:01:31;3.13;;;3.13;;
71176;SDS011;58877;51.992;4.504;2023-05-31T00:03:56;2.90;;;2.90;;
71176;SDS011;58877;51.992;4.504;2023-05-31T00:06:22;2.90;;;2.90;;
71176;SDS011;58877;51.992;4.504;2023-05-31T00:08:48;2.89;;;2.89;;
71176;SDS011;58877;51.992;4.504;2023-05-31T00:11:13;3.09;;;3.09;;
71176;SDS011;58877;51.992;4.504;2023-05-31T00:13:39;2.89;;;2.89;;
71176;SDS011;58877;51.992;4.504;2023-05-31T00:16:08;3.06;;;3.06;;
71176;SDS011;58877;51.992;4.504;2023-05-31T00:18:35;3.40;;;3.40;;
71176;SDS011;58877;51.992;4.504;2023-05-31T00:21:00;3.20;;;3.20;;
71176;SDS011;58877;51.992;4.504;2023-05-31T00:23:26;3.37;;;3.37;;
71176;SDS011;58877;51.992;4.504;2023-05-31T00:25:52;3.08;;;3.08;;
71176;SDS011;58877;51.992;4.504;2023-05-31T00:28:17;3.29;;;3.29;;
71176;SDS011;58877;51.992;4.504;2023-05-31T00:30:43;3.03;;;3.01;;
71176;SDS011;58877;51.992;4.504;2023-05-31T00:33:08;3.13;;;3.12;;
71176;SDS011;58877;51.992;4.504;2023-05-31T00:35:34;3.33;;;3.33;;
71176;SDS011;58877;51.992;4.504;2023-05-31T00:38:01;3.28;;;3.28;;
71176;SDS011;58877;51.992;4.504;2023-05-31T00:40:30;3.03;;;3.03;;
71176;SDS011;58877;51.992;4.504;2023-05-31T00:42:55;3.04;;;3.04;;
71176;SDS011;58877;51.992;4.504;2023-05-31T00:45:21;3.34;;;3.34;;
71176;SDS011;58877;51.992;4.504;2023-05-31T00:47:46;3.36;;;3.36;;
71176;SDS011;58877;51.992;4.504;2023-05-31T00:50:12;3.20;;;3.18;;
71176;SDS011;58877;51.992;4.504;2023-05-31T00:52:38;3.56;;;3.54;;
71176;SDS011;58877;51.992;4.504;2023-05-31T00:55:04;3.70;;;3.69;;
71176;SDS011;58877;51.992;4.504;2023-05-31T00:57:30;3.73;;;3.72;;
71176;SDS011;58877;51.992;4.504;2023-05-31T00:59:56;3.72;;;3.70;;
71176;SDS011;58877;51.992;4.504;2023-05-31T01:02:22;3.63;;;3.61;;
71176;SDS011;58877;51.992;4.504;2023-05-31T01:04:51;3.42;;;3.41;;
71176;SDS011;58877;51.992;4.504;2023-05-31T01:07:16;3.78;;;3.78;;
71176;SDS011;58877;51.992;4.504;2023-05-31T01:09:42;3.95;;;3.95;;
71176;SDS011;58877;51.992;4.504;2023-05-31T01:15:23;3.67;;;3.66;;
71176;SDS011;58877;51.992;4.504;2023-05-31T01:20:32;3.82;;;3.81;;
71176;SDS011;58877;51.992;4.504;2023-05-31T01:23:25;3.97;;;3.95;;
71176;SDS011;58877;51.992;4.504;2023-05-31T01:26:04;3.94;;;3.94;;
71176;SDS011;58877;51.992;4.504;2023-05-31T01:28:51;3.79;;;3.79;;
71176;SDS011;58877;51.992;4.504;2023-05-31T01:31:22;3.71;;;3.71;;
71176;SDS011;58877;51.992;4.504;2023-05-31T01:33:48;3.93;;;3.90;;
71176;SDS011;58877;51.992;4.504;2023-05-31T01:36:15;3.54;;;3.51;;
71176;SDS011;58877;51.992;4.504;2023-05-31T01:38:41;4.06;;;4.02;;
71176;SDS011;58877;51.992;4.504;2023-05-31T01:41:07;4.01;;;4.00;;
71176;SDS011;58877;51.992;4.504;2023-05-31T01:43:39;4.01;;;4.00;;
71176;SDS011;58877;51.992;4.504;2023-05-31T01:46:08;4.29;;;4.25;;
71176;SDS011;58877;51.992;4.504;2023-05-31T01:48:37;3.80;;;3.77;;
71176;SDS011;58877;51.992;4.504;2023-05-31T01:51:05;3.91;;;3.90;;
71176;SDS011;58877;51.992;4.504;2023-05-31T01:53:36;4.05;;;4.04;;
71176;SDS011;58877;51.992;4.504;2023-05-31T01:56:02;4.29;;;4.28;;
71176;SDS011;58877;51.992;4.504;2023-05-31T01:58:29;3.98;;;3.96;;
71176;SDS011;58877;51.992;4.504;2023-05-31T02:00:57;3.90;;;3.86;;
71176;SDS011;58877;51.992;4.504;2023-05-31T02:03:24;4.02;;;3.97;;
71176;SDS011;58877;51.992;4.504;2023-05-31T02:05:59;4.00;;;3.96;;
71176;SDS011;58877;51.992;4.504;2023-05-31T02:08:26;4.11;;;4.06;;
71176;SDS011;58877;51.992;4.504;2023-05-31T02:10:53;4.29;;;4.25;;
71176;SDS011;58877;51.992;4.504;2023-05-31T02:13:19;4.34;;;4.31;;
71176;SDS011;58877;51.992;4.504;2023-05-31T02:15:48;4.25;;;4.22;;
71176;SDS011;58877;51.992;4.504;2023-05-31T02:18:14;4.03;;;4.00;;
71176;SDS011;58877;51.992;4.504;2023-05-31T02:20:42;4.34;;;4.30;;
71176;SDS011;58877;51.992;4.504;2023-05-31T02:23:08;4.18;;;4.11;;
71176;SDS011;58877;51.992;4.504;2023-05-31T02:25:34;4.14;;;4.09;;
71176;SDS011;58877;51.992;4.504;2023-05-31T02:27:59;4.15;;;4.13;;
71176;SDS011;58877;51.992;4.504;2023-05-31T02:30:28;4.04;;;4.02;;
71176;SDS011;58877;51.992;4.504;2023-05-31T02:32:55;4.19;;;4.18;;
71176;SDS011;58877;51.992;4.504;2023-05-31T02:35:20;3.66;;;3.64;;
71176;SDS011;58877;51.992;4.504;2023-05-31T02:37:46;3.83;;;3.81;;
71176;SDS011;58877;51.992;4.504;2023-05-31T02:40:12;4.29;;;4.24;;
71176;SDS011;58877;51.992;4.504;2023-05-31T02:42:39;4.27;;;4.21;;
71176;SDS011;58877;51.992;4.504;2023-05-31T02:45:07;4.05;;;3.99;;
71176;SDS011;58877;51.992;4.504;2023-05-31T02:47:33;3.94;;;3.88;;
71176;SDS011;58877;51.992;4.504;2023-05-31T02:50:00;4.20;;;4.11;;
71176;SDS011;58877;51.992;4.504;2023-05-31T02:52:26;4.28;;;4.24;;
71176;SDS011;58877;51.992;4.504;2023-05-31T02:54:51;4.52;;;4.47;;
71176;SDS011;58877;51.992;4.504;2023-05-31T02:57:17;3.82;;;3.79;;
71176;SDS011;58877;51.992;4.504;2023-05-31T02:59:43;4.01;;;3.98;;
71176;SDS011;58877;51.992;4.504;2023-05-31T03:02:09;4.01;;;3.98;;
71176;SDS011;58877;51.992;4.504;2023-05-31T03:04:35;3.95;;;3.92;;
71176;SDS011;58877;51.992;4.504;2023-05-31T03:07:07;3.96;;;3.95;;
71176;SDS011;58877;51.992;4.504;2023-05-31T03:09:33;4.01;;;4.00;;
71176;SDS011;58877;51.992;4.504;2023-05-31T03:11:58;3.90;;;3.87;;
71176;SDS011;58877;51.992;4.504;2023-05-31T03:14:24;4.16;;;4.11;;
71176;SDS011;58877;51.992;4.504;2023-05-31T03:16:49;4.23;;;4.17;;
71176;SDS011;58877;51.992;4.504;2023-05-31T03:19:15;4.22;;;4.18;;
71176;SDS011;58877;51.992;4.504;2023-05-31T03:21:41;4.20;;;4.15;;
71176;SDS011;58877;51.992;4.504;2023-05-31T03:24:06;4.12;;;4.09;;
71176;SDS011;58877;51.992;4.504;2023-05-31T03:26:32;4.36;;;4.34;;
71176;SDS011;58877;51.992;4.504;2023-05-31T03:28:57;4.45;;;4.45;;
71176;SDS011;58877;51.992;4.504;2023-05-31T03:31:23;4.34;;;4.34;;
71176;SDS011;58877;51.992;4.504;2023-05-31T03:33:50;4.33;;;4.31;;
71176;SDS011;58877;51.992;4.504;2023-05-31T03:36:16;4.07;;;4.04;;
71176;SDS011;58877;51.992;4.504;2023-05-31T03:41:17;3.84;;;3.81;;
71176;SDS011;58877;51.992;4.504;2023-05-31T03:43:55;4.40;;;4.39;;
71176;SDS011;58877;51.992;4.504;2023-05-31T03:47:07;4.43;;;4.38;;
71176;SDS011;58877;51.992;4.504;2023-05-31T03:49:36;4.21;;;4.18;;
71176;SDS011;58877;51.992;4.504;2023-05-31T03:52:08;4.19;;;4.10;;
71176;SDS011;58877;51.992;4.504;2023-05-31T03:54:54;4.44;;;4.36;;
71176;SDS011;58877;51.992;4.504;2023-05-31T03:57:20;4.55;;;4.48;;
71176;SDS011;58877;51.992;4.504;2023-05-31T03:59:46;4.58;;;4.51;;
71176;SDS011;58877;51.992;4.504;2023-05-31T04:02:13;4.18;;;4.12;;
71176;SDS011;58877;51.992;4.504;2023-05-31T04:04:39;4.50;;;4.45;;
71176;SDS011;58877;51.992;4.504;2023-05-31T04:07:10;4.41;;;4.37;;
71176;SDS011;58877;51.992;4.504;2023-05-31T04:09:40;4.73;;;4.70;;
71176;SDS011;58877;51.992;4.504;2023-05-31T04:12:08;4.54;;;4.51;;
71176;SDS011;58877;51.992;4.504;2023-05-31T04:14:35;4.69;;;4.66;;
71176;SDS011;58877;51.992;4.504;2023-05-31T04:17:07;5.01;;;4.95;;
71176;SDS011;58877;51.992;4.504;2023-05-31T04:19:36;4.98;;;4.93;;
71176;SDS011;58877;51.992;4.504;2023-05-31T04:22:02;4.66;;;4.62;;
71176;SDS011;58877;51.992;4.504;2023-05-31T04:24:28;4.52;;;4.49;;
71176;SDS011;58877;51.992;4.504;2023-05-31T04:26:54;4.55;;;4.52;;
71176;SDS011;58877;51.992;4.504;2023-05-31T04:29:22;4.44;;;4.44;;
71176;SDS011;58877;51.992;4.504;2023-05-31T04:31:51;4.49;;;4.47;;
71176;SDS011;58877;51.992;4.504;2023-05-31T04:34:20;4.95;;;4.91;;
71176;SDS011;58877;51.992;4.504;2023-05-31T04:36:51;4.75;;;4.72;;
71176;SDS011;58877;51.992;4.504;2023-05-31T04:39:24;5.15;;;5.12;;
71176;SDS011;58877;51.992;4.504;2023-05-31T04:42:02;5.04;;;4.99;;
71176;SDS011;58877;51.992;4.504;2023-05-31T04:44:28;4.98;;;4.91;;
71176;SDS011;58877;51.992;4.504;2023-05-31T04:46:57;5.06;;;5.04;;
71176;SDS011;58877;51.992;4.504;2023-05-31T04:49:23;5.31;;;5.28;;
71176;SDS011;58877;51.992;4.504;2023-05-31T04:51:50;5.19;;;5.14;;
71176;SDS011;58877;51.992;4.504;2023-05-31T04:54:59;5.41;;;5.38;;
71176;SDS011;58877;51.992;4.504;2023-05-31T04:57:06;5.47;;;5.45;;
71176;SDS011;58877;51.992;4.504;2023-05-31T04:59:38;5.06;;;5.04;;
71176;SDS011;58877;51.992;4.504;2023-05-31T05:02:04;5.21;;;5.20;;
71176;SDS011;58877;51.992;4.504;2023-05-31T05:04:37;5.15;;;5.11;;
71176;SDS011;58877;51.992;4.504;2023-05-31T05:10:22;5.29;;;5.26;;
71176;SDS011;58877;51.992;4.504;2023-05-31T05:13:09;5.83;;;5.77;;
71176;SDS011;58877;51.992;4.504;2023-05-31T05:15:41;5.04;;;5.03;;
71176;SDS011;58877;51.992;4.504;2023-05-31T05:18:15;5.34;;;5.32;;
71176;SDS011;58877;51.992;4.504;2023-05-31T05:21:03;5.62;;;5.57;;
71176;SDS011;58877;51.992;4.504;2023-05-31T05:23:29;5.80;;;5.75;;
71176;SDS011;58877;51.992;4.504;2023-05-31T05:25:55;5.55;;;5.54;;
71176;SDS011;58877;51.992;4.504;2023-05-31T05:28:21;6.32;;;6.27;;
71176;SDS011;58877;51.992;4.504;2023-05-31T05:30:47;6.03;;;5.99;;
71176;SDS011;58877;51.992;4.504;2023-05-31T05:33:16;5.60;;;5.55;;
71176;SDS011;58877;51.992;4.504;2023-05-31T05:35:42;5.93;;;5.86;;
71176;SDS011;58877;51.992;4.504;2023-05-31T05:38:08;5.94;;;5.90;;
71176;SDS011;58877;51.992;4.504;2023-05-31T05:40:36;5.66;;;5.62;;
71176;SDS011;58877;51.992;4.504;2023-05-31T05:43:05;5.84;;;5.74;;
71176;SDS011;58877;51.992;4.504;2023-05-31T05:45:31;6.06;;;6.03;;
71176;SDS011;58877;51.992;4.504;2023-05-31T05:47:57;6.04;;;6.01;;
71176;SDS011;58877;51.992;4.504;2023-05-31T05:50:24;6.41;;;6.34;;
71176;SDS011;58877;51.992;4.504;2023-05-31T05:55:48;6.16;;;6.11;;
71176;SDS011;58877;51.992;4.504;2023-05-31T05:58:15;7.33;;;7.27;;
71176;SDS011;58877;51.992;4.504;2023-05-31T06:00:42;6.89;;;6.84;;
71176;SDS011;58877;51.992;4.504;2023-05-31T06:03:12;6.53;;;6.53;;
71176;SDS011;58877;51.992;4.504;2023-05-31T06:05:46;6.80;;;6.78;;
71176;SDS011;58877;51.992;4.504;2023-05-31T06:08:12;7.05;;;7.05;;
71176;SDS011;58877;51.992;4.504;2023-05-31T06:10:38;7.28;;;7.25;;
71176;SDS011;58877;51.992;4.504;2023-05-31T06:13:06;7.03;;;6.98;;
71176;SDS011;58877;51.992;4.504;2023-05-31T06:15:32;7.59;;;7.53;;
71176;SDS011;58877;51.992;4.504;2023-05-31T06:17:58;7.27;;;7.20;;
71176;SDS011;58877;51.992;4.504;2023-05-31T06:20:24;7.49;;;7.37;;
71176;SDS011;58877;51.992;4.504;2023-05-31T06:22:56;7.22;;;7.14;;
71176;SDS011;58877;51.992;4.504;2023-05-31T06:25:25;7.45;;;7.38;;
71176;SDS011;58877;51.992;4.504;2023-05-31T06:27:54;7.68;;;7.60;;
71176;SDS011;58877;51.992;4.504;2023-05-31T06:30:25;7.40;;;7.34;;
71176;SDS011;58877;51.992;4.504;2023-05-31T06:32:56;7.40;;;7.32;;
71176;SDS011;58877;51.992;4.504;2023-05-31T06:35:24;7.04;;;6.98;;
71176;SDS011;58877;51.992;4.504;2023-05-31T06:37:50;7.55;;;7.50;;
71176;SDS011;58877;51.992;4.504;2023-05-31T06:40:29;6.92;;;6.89;;
71176;SDS011;58877;51.992;4.504;2023-05-31T06:43:03;7.26;;;7.20;;
71176;SDS011;58877;51.992;4.504;2023-05-31T06:45:29;7.70;;;7.62;;
71176;SDS011;58877;51.992;4.504;2023-05-31T06:47:58;7.35;;;7.29;;
71176;SDS011;58877;51.992;4.504;2023-05-31T06:50:40;7.31;;;7.26;;
71176;SDS011;58877;51.992;4.504;2023-05-31T06:53:17;7.48;;;7.39;;
71176;SDS011;58877;51.992;4.504;2023-05-31T06:55:47;6.90;;;6.76;;
71176;SDS011;58877;51.992;4.504;2023-05-31T06:58:14;6.66;;;6.62;;
71176;SDS011;58877;51.992;4.504;2023-05-31T07:00:42;6.89;;;6.87;;
71176;SDS011;58877;51.992;4.504;2023-05-31T07:03:07;7.23;;;7.15;;
71176;SDS011;58877;51.992;4.504;2023-05-31T07:05:33;7.10;;;7.01;;
71176;SDS011;58877;51.992;4.504;2023-05-31T07:08:00;6.96;;;6.90;;
71176;SDS011;58877;51.992;4.504;2023-05-31T07:10:26;6.70;;;6.66;;
71176;SDS011;58877;51.992;4.504;2023-05-31T07:12:55;6.58;;;6.55;;
71176;SDS011;58877;51.992;4.504;2023-05-31T07:15:24;6.96;;;6.93;;
71176;SDS011;58877;51.992;4.504;2023-05-31T07:17:50;6.96;;;6.95;;
71176;SDS011;58877;51.992;4.504;2023-05-31T07:20:35;6.22;;;6.19;;
71176;SDS011;58877;51.992;4.504;2023-05-31T07:23:01;6.64;;;6.62;;
71176;SDS011;58877;51.992;4.504;2023-05-31T07:25:27;6.91;;;6.88;;
71176;SDS011;58877;51.992;4.504;2023-05-31T07:27:53;6.77;;;6.76;;
71176;SDS011;58877;51.992;4.504;2023-05-31T07:30:20;6.27;;;6.27;;
71176;SDS011;58877;51.992;4.504;2023-05-31T07:32:46;6.41;;;6.41;;
71176;SDS011;58877;51.992;4.504;2023-05-31T07:35:11;6.03;;;6.03;;
71176;SDS011;58877;51.992;4.504;2023-05-31T07:37:43;6.33;;;6.32;;
71176;SDS011;58877;51.992;4.504;2023-05-31T07:40:09;6.40;;;6.37;;
71176;SDS011;58877;51.992;4.504;2023-05-31T07:42:36;6.61;;;6.57;;
71176;SDS011;58877;51.992;4.504;2023-05-31T07:45:08;6.00;;;5.99;;
71176;SDS011;58877;51.992;4.504;2023-05-31T07:47:34;6.76;;;6.76;;
71176;SDS011;58877;51.992;4.504;2023-05-31T07:50:01;6.12;;;6.12;;
71176;SDS011;58877;51.992;4.504;2023-05-31T07:52:48;5.97;;;5.97;;
71176;SDS011;58877;51.992;4.504;2023-05-31T07:55:25;6.11;;;6.11;;
71176;SDS011;58877;51.992;4.504;2023-05-31T07:58:06;5.80;;;5.80;;
71176;SDS011;58877;51.992;4.504;2023-05-31T08:00:32;6.24;;;6.24;;
71176;SDS011;58877;51.992;4.504;2023-05-31T08:02:58;6.33;;;6.30;;
71176;SDS011;58877;51.992;4.504;2023-05-31T08:05:24;6.42;;;6.39;;
71176;SDS011;58877;51.992;4.504;2023-05-31T08:07:56;6.05;;;6.05;;
71176;SDS011;58877;51.992;4.504;2023-05-31T08:10:30;5.88;;;5.87;;
71176;SDS011;58877;51.992;4.504;2023-05-31T08:12:56;6.27;;;6.26;;
71176;SDS011;58877;51.992;4.504;2023-05-31T08:15:22;6.37;;;6.35;;
71176;SDS011;58877;51.992;4.504;2023-05-31T08:17:49;5.91;;;5.90;;
71176;SDS011;58877;51.992;4.504;2023-05-31T08:20:16;5.70;;;5.67;;
71176;SDS011;58877;51.992;4.504;2023-05-31T08:22:42;5.95;;;5.91;;
71176;SDS011;58877;51.992;4.504;2023-05-31T08:25:09;5.87;;;5.83;;
71176;SDS011;58877;51.992;4.504;2023-05-31T08:27:40;5.98;;;5.96;;
71176;SDS011;58877;51.992;4.504;2023-05-31T08:30:10;5.85;;;5.83;;
71176;SDS011;58877;51.992;4.504;2023-05-31T08:32:38;6.11;;;6.09;;
71176;SDS011;58877;51.992;4.504;2023-05-31T08:35:06;6.09;;;6.06;;
71176;SDS011;58877;51.992;4.504;2023-05-31T08:37:33;5.76;;;5.75;;
71176;SDS011;58877;51.992;4.504;2023-05-31T08:40:07;5.44;;;5.43;;
71176;SDS011;58877;51.992;4.504;2023-05-31T08:45:20;5.14;;;5.14;;
71176;SDS011;58877;51.992;4.504;2023-05-31T08:50:57;5.86;;;5.86;;
71176;SDS011;58877;51.992;4.504;2023-05-31T08:53:40;5.62;;;5.61;;
71176;SDS011;58877;51.992;4.504;2023-05-31T08:56:20;5.43;;;5.43;;
71176;SDS011;58877;51.992;4.504;2023-05-31T08:59:10;5.78;;;5.77;;
71176;SDS011;58877;51.992;4.504;2023-05-31T09:01:48;5.63;;;5.62;;
71176;SDS011;58877;51.992;4.504;2023-05-31T09:04:15;5.78;;;5.77;;
71176;SDS011;58877;51.992;4.504;2023-05-31T09:06:45;5.30;;;5.28;;
71176;SDS011;58877;51.992;4.504;2023-05-31T09:09:12;5.53;;;5.50;;
71176;SDS011;58877;51.992;4.504;2023-05-31T09:11:38;5.86;;;5.82;;
71176;SDS011;58877;51.992;4.504;2023-05-31T09:14:07;5.33;;;5.28;;
71176;SDS011;58877;51.992;4.504;2023-05-31T09:16:36;5.12;;;5.08;;
71176;SDS011;58877;51.992;4.504;2023-05-31T09:19:05;5.34;;;5.33;;
71176;SDS011;58877;51.992;4.504;2023-05-31T09:21:44;4.96;;;4.95;;
71176;SDS011;58877;51.992;4.504;2023-05-31T09:24:12;5.16;;;5.15;;
71176;SDS011;58877;51.992;4.504;2023-05-31T09:26:46;5.01;;;5.01;;
71176;SDS011;58877;51.992;4.504;2023-05-31T09:29:20;5.38;;;5.37;;
71176;SDS011;58877;51.992;4.504;2023-05-31T09:31:48;5.59;;;5.59;;
71176;SDS011;58877;51.992;4.504;2023-05-31T09:34:45;4.91;;;4.91;;
71176;SDS011;58877;51.992;4.504;2023-05-31T09:37:23;5.49;;;5.46;;
71176;SDS011;58877;51.992;4.504;2023-05-31T09:40:05;5.19;;;5.14;;
71176;SDS011;58877;51.992;4.504;2023-05-31T09:42:35;5.16;;;5.14;;
71176;SDS011;58877;51.992;4.504;2023-05-31T09:45:09;4.80;;;4.79;;
71176;SDS011;58877;51.992;4.504;2023-05-31T09:47:46;5.28;;;5.25;;
71176;SDS011;58877;51.992;4.504;2023-05-31T09:52:46;4.95;;;4.94;;
71176;SDS011;58877;51.992;4.504;2023-05-31T09:55:17;5.11;;;5.11;;
71176;SDS011;58877;51.992;4.504;2023-05-31T09:57:52;4.91;;;4.91;;
71176;SDS011;58877;51.992;4.504;2023-05-31T10:00:22;5.18;;;5.17;;
71176;SDS011;58877;51.992;4.504;2023-05-31T10:02:56;4.98;;;4.97;;
71176;SDS011;58877;51.992;4.504;2023-05-31T10:05:26;4.65;;;4.61;;
71176;SDS011;58877;51.992;4.504;2023-05-31T10:08:06;4.68;;;4.63;;
71176;SDS011;58877;51.992;4.504;2023-05-31T10:10:58;4.77;;;4.77;;
71176;SDS011;58877;51.992;4.504;2023-05-31T10:13:34;4.61;;;4.60;;
71176;SDS011;58877;51.992;4.504;2023-05-31T10:16:09;4.66;;;4.65;;
71176;SDS011;58877;51.992;4.504;2023-05-31T10:18:45;4.13;;;4.13;;
71176;SDS011;58877;51.992;4.504;2023-05-31T10:21:26;4.33;;;4.33;;
71176;SDS011;58877;51.992;4.504;2023-05-31T10:24:10;4.37;;;4.37;;
71176;SDS011;58877;51.992;4.504;2023-05-31T10:27:05;4.41;;;4.40;;
71176;SDS011;58877;51.992;4.504;2023-05-31T10:29:35;4.56;;;4.55;;
71176;SDS011;58877;51.992;4.504;2023-05-31T10:32:13;4.77;;;4.77;;
71176;SDS011;58877;51.992;4.504;2023-05-31T10:34:44;3.93;;;3.92;;
71176;SDS011;58877;51.992;4.504;2023-05-31T10:37:13;4.20;;;4.19;;
71176;SDS011;58877;51.992;4.504;2023-05-31T10:39:43;4.68;;;4.63;;
71176;SDS011;58877;51.992;4.504;2023-05-31T10:45:12;4.82;;;4.78;;
71176;SDS011;58877;51.992;4.504;2023-05-31T10:48:29;4.46;;;4.44;;
71176;SDS011;58877;51.992;4.504;2023-05-31T10:50:52;5.13;;;5.11;;
71176;SDS011;58877;51.992;4.504;2023-05-31T10:53:19;4.73;;;4.72;;
71176;SDS011;58877;51.992;4.504;2023-05-31T10:55:46;4.64;;;4.63;;
71176;SDS011;58877;51.992;4.504;2023-05-31T10:58:29;4.40;;;4.39;;
71176;SDS011;58877;51.992;4.504;2023-05-31T11:00:55;3.93;;;3.93;;
71176;SDS011;58877;51.992;4.504;2023-05-31T11:03:23;4.00;;;4.00;;
71176;SDS011;58877;51.992;4.504;2023-05-31T11:05:57;4.85;;;4.83;;
71176;SDS011;58877;51.992;4.504;2023-05-31T11:08:28;4.07;;;4.07;;
71176;SDS011;58877;51.992;4.504;2023-05-31T11:16:33;4.19;;;4.16;;
71176;SDS011;58877;51.992;4.504;2023-05-31T11:19:32;3.99;;;3.99;;
71176;SDS011;58877;51.992;4.504;2023-05-31T11:22:06;4.44;;;4.40;;
71176;SDS011;58877;51.992;4.504;2023-05-31T11:27:11;4.07;;;4.05;;
71176;SDS011;58877;51.992;4.504;2023-05-31T11:32:16;4.11;;;4.08;;
71176;SDS011;58877;51.992;4.504;2023-05-31T11:37:20;4.05;;;4.05;;
71176;SDS011;58877;51.992;4.504;2023-05-31T11:39:48;4.16;;;4.12;;
71176;SDS011;58877;51.992;4.504;2023-05-31T11:42:15;4.29;;;4.24;;
71176;SDS011;58877;51.992;4.504;2023-05-31T11:44:45;3.64;;;3.64;;
71176;SDS011;58877;51.992;4.504;2023-05-31T11:47:18;3.85;;;3.85;;
71176;SDS011;58877;51.992;4.504;2023-05-31T11:49:46;3.45;;;3.44;;
71176;SDS011;58877;51.992;4.504;2023-05-31T11:52:16;3.78;;;3.78;;
71176;SDS011;58877;51.992;4.504;2023-05-31T11:54:44;3.47;;;3.46;;
71176;SDS011;58877;51.992;4.504;2023-05-31T11:57:11;4.04;;;4.00;;
71176;SDS011;58877;51.992;4.504;2023-05-31T11:59:38;3.95;;;3.91;;
71176;SDS011;58877;51.992;4.504;2023-05-31T12:02:07;3.31;;;3.31;;
71176;SDS011;58877;51.992;4.504;2023-05-31T12:04:38;3.48;;;3.46;;
71176;SDS011;58877;51.992;4.504;2023-05-31T12:07:11;3.98;;;3.94;;
71176;SDS011;58877;51.992;4.504;2023-05-31T12:09:45;3.54;;;3.52;;
71176;SDS011;58877;51.992;4.504;2023-05-31T12:12:11;3.19;;;3.18;;
71176;SDS011;58877;51.992;4.504;2023-05-31T12:14:37;3.32;;;3.31;;
71176;SDS011;58877;51.992;4.504;2023-05-31T12:17:04;3.60;;;3.59;;
71176;SDS011;58877;51.992;4.504;2023-05-31T12:19:30;3.60;;;3.59;;
71176;SDS011;58877;51.992;4.504;2023-05-31T12:21:57;3.61;;;3.60;;
71176;SDS011;58877;51.992;4.504;2023-05-31T12:24:23;3.66;;;3.65;;
71176;SDS011;58877;51.992;4.504;2023-05-31T12:26:49;3.31;;;3.28;;
71176;SDS011;58877;51.992;4.504;2023-05-31T12:29:15;3.25;;;3.25;;
71176;SDS011;58877;51.992;4.504;2023-05-31T12:31:42;3.28;;;3.28;;
71176;SDS011;58877;51.992;4.504;2023-05-31T12:34:12;3.47;;;3.46;;
71176;SDS011;58877;51.992;4.504;2023-05-31T12:36:42;3.17;;;3.16;;
71176;SDS011;58877;51.992;4.504;2023-05-31T12:39:20;3.59;;;3.57;;
71176;SDS011;58877;51.992;4.504;2023-05-31T12:41:50;3.34;;;3.32;;
71176;SDS011;58877;51.992;4.504;2023-05-31T12:44:18;3.52;;;3.50;;
71176;SDS011;58877;51.992;4.504;2023-05-31T12:46:47;3.54;;;3.53;;
71176;SDS011;58877;51.992;4.504;2023-05-31T12:49:14;3.31;;;3.28;;
71176;SDS011;58877;51.992;4.504;2023-05-31T12:51:48;3.53;;;3.49;;
71176;SDS011;58877;51.992;4.504;2023-05-31T12:54:26;3.26;;;3.22;;
71176;SDS011;58877;51.992;4.504;2023-05-31T12:56:53;3.34;;;3.28;;
71176;SDS011;58877;51.992;4.504;2023-05-31T12:59:23;2.84;;;2.81;;
71176;SDS011;58877;51.992;4.504;2023-05-31T13:02:12;2.94;;;2.89;;
71176;SDS011;58877;51.992;4.504;2023-05-31T13:04:38;3.21;;;3.14;;
71176;SDS011;58877;51.992;4.504;2023-05-31T13:07:07;2.89;;;2.84;;
71176;SDS011;58877;51.992;4.504;2023-05-31T13:09:38;3.36;;;3.29;;
71176;SDS011;58877;51.992;4.504;2023-05-31T13:12:04;3.19;;;3.10;;
71176;SDS011;58877;51.992;4.504;2023-05-31T13:14:30;3.35;;;3.23;;
71176;SDS011;58877;51.992;4.504;2023-05-31T13:16:56;3.36;;;3.25;;
71176;SDS011;58877;51.992;4.504;2023-05-31T13:19:22;3.29;;;3.21;;
71176;SDS011;58877;51.992;4.504;2023-05-31T13:21:48;3.39;;;3.33;;
71176;SDS011;58877;51.992;4.504;2023-05-31T13:24:18;3.58;;;3.52;;
71176;SDS011;58877;51.992;4.504;2023-05-31T13:26:44;3.29;;;3.21;;
71176;SDS011;58877;51.992;4.504;2023-05-31T13:29:10;4.02;;;3.85;;
71176;SDS011;58877;51.992;4.504;2023-05-31T13:31:36;3.46;;;3.35;;
71176;SDS011;58877;51.992;4.504;2023-05-31T13:34:01;3.41;;;3.33;;
71176;SDS011;58877;51.992;4.504;2023-05-31T13:36:28;3.65;;;3.55;;
71176;SDS011;58877;51.992;4.504;2023-05-31T13:38:53;3.64;;;3.57;;
71176;SDS011;58877;51.992;4.504;2023-05-31T13:41:19;3.72;;;3.63;;
71176;SDS011;58877;51.992;4.504;2023-05-31T13:43:47;3.74;;;3.66;;
71176;SDS011;58877;51.992;4.504;2023-05-31T13:46:13;3.58;;;3.48;;
71176;SDS011;58877;51.992;4.504;2023-05-31T13:48:39;3.17;;;3.10;;
71176;SDS011;58877;51.992;4.504;2023-05-31T13:51:06;3.89;;;3.75;;
71176;SDS011;58877;51.992;4.504;2023-05-31T13:53:34;3.29;;;3.17;;
71176;SDS011;58877;51.992;4.504;2023-05-31T13:56:01;3.19;;;3.09;;
71176;SDS011;58877;51.992;4.504;2023-05-31T13:58:33;3.09;;;2.99;;
71176;SDS011;58877;51.992;4.504;2023-05-31T14:00:58;3.01;;;2.96;;
71176;SDS011;58877;51.992;4.504;2023-05-31T14:03:24;3.18;;;3.15;;
71176;SDS011;58877;51.992;4.504;2023-05-31T14:05:50;3.18;;;3.14;;
71176;SDS011;58877;51.992;4.504;2023-05-31T14:08:16;3.03;;;2.91;;
71176;SDS011;58877;51.992;4.504;2023-05-31T14:10:42;2.98;;;2.86;;
71176;SDS011;58877;51.992;4.504;2023-05-31T14:13:08;3.17;;;3.07;;
71176;SDS011;58877;51.992;4.504;2023-05-31T14:15:35;2.82;;;2.78;;
71176;SDS011;58877;51.992;4.504;2023-05-31T14:18:02;2.77;;;2.68;;
71176;SDS011;58877;51.992;4.504;2023-05-31T14:20:28;2.77;;;2.69;;
71176;SDS011;58877;51.992;4.504;2023-05-31T14:22:54;2.75;;;2.68;;
71176;SDS011;58877;51.992;4.504;2023-05-31T14:25:20;2.90;;;2.83;;
71176;SDS011;58877;51.992;4.504;2023-05-31T14:27:45;2.61;;;2.58;;
71176;SDS011;58877;51.992;4.504;2023-05-31T14:30:11;2.74;;;2.71;;
71176;SDS011;58877;51.992;4.504;2023-05-31T14:32:39;2.61;;;2.58;;
71176;SDS011;58877;51.992;4.504;2023-05-31T14:35:05;3.11;;;3.03;;
71176;SDS011;58877;51.992;4.504;2023-05-31T14:37:34;3.18;;;3.12;;
71176;SDS011;58877;51.992;4.504;2023-05-31T14:40:00;3.38;;;3.33;;
71176;SDS011;58877;51.992;4.504;2023-05-31T14:42:25;3.36;;;3.31;;
71176;SDS011;58877;51.992;4.504;2023-05-31T14:44:51;3.14;;;3.10;;
71176;SDS011;58877;51.992;4.504;2023-05-31T14:47:17;2.78;;;2.74;;
71176;SDS011;58877;51.992;4.504;2023-05-31T14:49:42;2.99;;;2.94;;
71176;SDS011;58877;51.992;4.504;2023-05-31T14:52:08;3.16;;;3.15;;
71176;SDS011;58877;51.992;4.504;2023-05-31T14:54:34;2.73;;;2.73;;
71176;SDS011;58877;51.992;4.504;2023-05-31T14:56:59;2.75;;;2.75;;
71176;SDS011;58877;51.992;4.504;2023-05-31T14:59:26;2.77;;;2.76;;
71176;SDS011;58877;51.992;4.504;2023-05-31T15:01:55;3.14;;;3.12;;
71176;SDS011;58877;51.992;4.504;2023-05-31T15:04:22;2.86;;;2.84;;
71176;SDS011;58877;51.992;4.504;2023-05-31T15:06:49;3.60;;;3.54;;
71176;SDS011;58877;51.992;4.504;2023-05-31T15:09:14;3.07;;;3.01;;
71176;SDS011;58877;51.992;4.504;2023-05-31T15:11:40;3.15;;;3.10;;
71176;SDS011;58877;51.992;4.504;2023-05-31T15:14:06;3.24;;;3.17;;
71176;SDS011;58877;51.992;4.504;2023-05-31T15:16:36;3.42;;;3.33;;
71176;SDS011;58877;51.992;4.504;2023-05-31T15:19:02;3.31;;;3.21;;
71176;SDS011;58877;51.992;4.504;2023-05-31T15:21:28;3.57;;;3.56;;
71176;SDS011;58877;51.992;4.504;2023-05-31T15:23:54;3.20;;;3.18;;
71176;SDS011;58877;51.992;4.504;2023-05-31T15:26:20;3.46;;;3.46;;
71176;SDS011;58877;51.992;4.504;2023-05-31T15:28:51;3.36;;;3.36;;
71176;SDS011;58877;51.992;4.504;2023-05-31T15:31:17;3.80;;;3.80;;
71176;SDS011;58877;51.992;4.504;2023-05-31T15:33:43;3.52;;;3.51;;
71176;SDS011;58877;51.992;4.504;2023-05-31T15:36:13;3.33;;;3.33;;
71176;SDS011;58877;51.992;4.504;2023-05-31T15:38:43;3.45;;;3.43;;
71176;SDS011;58877;51.992;4.504;2023-05-31T15:41:09;3.53;;;3.53;;